createdAt,value
2018-06-25T00:00:08.841Z,99.90
2018-06-25T00:02:37.596Z,99.90
2018-06-25T00:05:06.430Z,99.90
2018-06-25T00:07:35.209Z,99.90
2018-06-25T00:10:04.116Z,99.90
2018-06-25T00:12:32.898Z,99.90
2018-06-25T00:15:01.676Z,99.90
2018-06-25T00:17:30.454Z,99.90
2018-06-25T00:19:59.196Z,99.90
2018-06-25T00:22:27.985Z,99.90
2018-06-25T00:24:56.805Z,99.90
2018-06-25T00:27:25.602Z,99.90
2018-06-25T00:29:54.441Z,99.90
2018-06-25T00:32:23.250Z,99.90
2018-06-25T00:34:52.254Z,99.90
2018-06-25T00:37:21.054Z,99.90
2018-06-25T00:39:49.870Z,99.90
2018-06-25T00:42:18.650Z,99.90
2018-06-25T00:44:47.430Z,99.90
2018-06-25T00:47:16.198Z,99.90
2018-06-25T00:49:45.027Z,99.90
2018-06-25T00:52:13.802Z,99.90
2018-06-25T00:54:42.610Z,99.90
2018-06-25T00:57:11.402Z,99.90
2018-06-25T00:59:55.294Z,99.90
2018-06-25T01:02:24.474Z,99.90
2018-06-25T01:04:53.272Z,99.90
2018-06-25T01:07:22.092Z,99.90
2018-06-25T01:09:50.876Z,99.90
2018-06-25T01:12:19.662Z,99.90
2018-06-25T01:14:48.451Z,99.90
2018-06-25T01:17:17.283Z,99.90
2018-06-25T01:19:46.050Z,99.90
2018-06-25T01:22:14.831Z,99.90
2018-06-25T01:24:43.636Z,99.90
2018-06-25T01:27:12.394Z,99.90
2018-06-25T01:29:42.030Z,99.90
2018-06-25T01:32:10.810Z,99.90
2018-06-25T01:34:40.482Z,99.90
2018-06-25T01:37:09.262Z,99.90
2018-06-25T01:39:38.082Z,99.90
2018-06-25T01:42:06.926Z,99.90
2018-06-25T01:44:35.733Z,99.90
2018-06-25T01:47:04.525Z,99.90
2018-06-25T01:49:33.281Z,99.90
2018-06-25T01:52:02.087Z,99.90
2018-06-25T01:54:30.862Z,99.90
2018-06-25T01:56:59.770Z,99.90
2018-06-25T01:59:28.594Z,99.90
2018-06-25T02:01:57.354Z,99.90
2018-06-25T02:04:26.132Z,99.90
2018-06-25T02:06:54.946Z,99.90
2018-06-25T02:09:23.825Z,99.90
2018-06-25T02:11:52.655Z,99.90
2018-06-25T02:14:21.424Z,99.90
2018-06-25T02:16:50.205Z,99.90
2018-06-25T02:19:18.994Z,99.90
2018-06-25T02:21:47.765Z,99.90
2018-06-25T02:24:16.542Z,99.90
2018-06-25T02:26:45.323Z,99.90
2018-06-25T02:29:14.147Z,99.90
2018-06-25T02:31:42.903Z,99.90
2018-06-25T02:34:11.691Z,99.90
2018-06-25T02:36:40.531Z,99.90
2018-06-25T02:39:11.183Z,99.90
2018-06-25T02:41:39.974Z,99.90
2018-06-25T02:44:09.381Z,99.90
2018-06-25T02:46:38.507Z,99.90
2018-06-25T02:49:07.326Z,99.90
2018-06-25T02:51:36.142Z,99.90
2018-06-25T02:54:05.002Z,99.90
2018-06-25T02:56:33.783Z,99.90
2018-06-25T02:59:02.590Z,99.90
2018-06-25T03:01:31.366Z,99.90
2018-06-25T03:04:00.158Z,99.90
2018-06-25T03:06:28.950Z,99.90
2018-06-25T03:08:57.706Z,99.90
2018-06-25T03:11:26.510Z,99.90
2018-06-25T03:14:01.758Z,99.90
2018-06-25T03:16:30.551Z,99.90
2018-06-25T03:18:59.315Z,99.90
2018-06-25T03:21:28.302Z,99.90
2018-06-25T03:23:57.094Z,99.90
2018-06-25T03:26:25.883Z,99.90
2018-06-25T03:29:01.066Z,99.90
2018-06-25T03:31:29.850Z,99.90
2018-06-25T03:33:58.613Z,99.90
2018-06-25T03:36:27.418Z,99.90
2018-06-25T03:38:56.194Z,99.90
2018-06-25T03:41:24.953Z,99.90
2018-06-25T03:43:53.702Z,99.90
2018-06-25T03:46:22.546Z,99.90
2018-06-25T03:48:51.332Z,99.90
2018-06-25T03:51:20.098Z,99.90
2018-06-25T03:53:48.849Z,99.90
2018-06-25T03:56:17.622Z,99.90
2018-06-25T03:58:46.393Z,99.90
2018-06-25T04:01:15.179Z,99.90
2018-06-25T04:03:43.930Z,99.90
2018-06-25T04:06:12.708Z,99.90
2018-06-25T04:08:41.482Z,99.90
2018-06-25T04:11:10.239Z,99.90
2018-06-25T04:13:39.190Z,99.90
2018-06-25T04:16:08.263Z,99.90
2018-06-25T04:18:37.078Z,99.90
2018-06-25T04:21:06.009Z,99.90
2018-06-25T04:23:34.806Z,99.90
2018-06-25T04:26:03.634Z,99.90
2018-06-25T04:28:32.425Z,99.90
2018-06-25T04:31:01.194Z,99.90
2018-06-25T04:33:29.966Z,99.90
2018-06-25T04:35:58.764Z,99.90
2018-06-25T04:38:27.558Z,99.90
2018-06-25T04:40:56.352Z,99.90
2018-06-25T04:43:25.153Z,99.90
2018-06-25T04:45:53.926Z,99.90
2018-06-25T04:48:22.707Z,99.90
2018-06-25T04:50:51.447Z,99.90
2018-06-25T04:53:20.250Z,99.90
2018-06-25T04:55:48.976Z,99.90
2018-06-25T04:58:17.783Z,99.90
2018-06-25T05:00:46.596Z,99.90
2018-06-25T05:03:15.384Z,99.90
2018-06-25T05:05:44.162Z,99.90
2018-06-25T05:08:12.926Z,99.90
2018-06-25T05:10:41.730Z,99.90
2018-06-25T05:13:10.498Z,99.90
2018-06-25T05:15:39.365Z,99.90
2018-06-25T05:18:08.222Z,99.90
2018-06-25T05:20:37.117Z,99.90
2018-06-25T05:23:06.014Z,99.90
2018-06-25T05:25:34.807Z,99.90
2018-06-25T05:28:03.592Z,99.90
2018-06-25T05:30:32.372Z,99.90
2018-06-25T05:33:01.165Z,99.90
2018-06-25T05:35:29.964Z,99.90
2018-06-25T05:37:58.730Z,99.90
2018-06-25T05:40:27.540Z,99.90
2018-06-25T05:42:56.345Z,99.90
2018-06-25T05:45:25.133Z,99.90
2018-06-25T05:47:54.000Z,99.90
2018-06-25T05:50:22.758Z,99.90
2018-06-25T05:52:51.553Z,99.90
2018-06-25T05:55:20.346Z,99.90
2018-06-25T05:57:49.166Z,99.90
2018-06-25T06:00:17.954Z,99.90
2018-06-25T06:02:46.838Z,99.90
2018-06-25T06:05:15.634Z,99.90
2018-06-25T06:07:44.418Z,99.90
2018-06-25T06:10:13.275Z,99.90
2018-06-25T06:12:42.242Z,99.90
2018-06-25T06:15:11.082Z,99.90
2018-06-25T06:17:39.898Z,99.90
2018-06-25T06:20:08.778Z,99.90
2018-06-25T06:22:37.561Z,99.90
2018-06-25T06:25:06.414Z,99.90
2018-06-25T06:27:35.226Z,99.90
2018-06-25T06:30:04.192Z,99.90
2018-06-25T06:32:32.969Z,99.90
2018-06-25T06:35:01.762Z,99.90
2018-06-25T06:37:30.602Z,99.90
2018-06-25T06:39:59.443Z,99.90
2018-06-25T06:42:28.270Z,99.90
2018-06-25T06:44:57.066Z,99.90
2018-06-25T06:47:25.870Z,99.90
2018-06-25T06:49:54.670Z,99.90
2018-06-25T06:52:23.452Z,99.90
2018-06-25T06:54:52.222Z,99.90
2018-06-25T06:57:21.014Z,99.90
2018-06-25T06:59:49.828Z,99.90
2018-06-25T07:02:18.576Z,99.90
2018-06-25T07:04:47.410Z,99.90
2018-06-25T07:07:16.219Z,99.90
2018-06-25T07:09:44.989Z,99.90
2018-06-25T07:12:13.815Z,99.90
2018-06-25T07:14:42.610Z,99.90
2018-06-25T07:17:11.446Z,99.90
2018-06-25T07:19:40.266Z,99.90
2018-06-25T07:22:09.110Z,99.90
2018-06-25T07:24:37.896Z,99.90
2018-06-25T07:29:35.075Z,99.90
2018-06-25T07:32:03.862Z,99.90
2018-06-25T07:34:32.650Z,99.90
2018-06-25T07:37:01.418Z,99.90
2018-06-25T07:39:30.182Z,99.90
2018-06-25T07:41:59.010Z,99.90
2018-06-25T07:44:27.780Z,99.90
2018-06-25T07:46:56.573Z,99.90
2018-06-25T07:49:25.378Z,99.90
2018-06-25T07:51:54.201Z,99.90
2018-06-25T07:54:22.982Z,99.90
2018-06-25T07:56:51.789Z,99.90
2018-06-25T07:59:20.552Z,99.90
2018-06-25T08:01:49.377Z,99.90
2018-06-25T08:04:18.168Z,99.90
2018-06-25T08:06:46.962Z,99.90
2018-06-25T08:09:15.843Z,99.90
2018-06-25T08:11:44.636Z,99.90
2018-06-25T08:14:13.414Z,99.90
2018-06-25T08:16:42.256Z,99.90
2018-06-25T08:19:11.141Z,99.90
2018-06-25T08:21:39.960Z,99.90
2018-06-25T08:24:08.832Z,99.90
2018-06-25T08:26:37.637Z,99.90
2018-06-25T08:29:06.414Z,99.90
2018-06-25T08:31:35.238Z,99.90
2018-06-25T08:34:04.092Z,99.90
2018-06-25T08:36:32.871Z,99.90
2018-06-25T08:39:01.722Z,99.90
2018-06-25T08:41:30.529Z,99.90
2018-06-25T08:43:59.306Z,99.90
2018-06-25T08:46:28.121Z,99.90
2018-06-25T08:48:56.919Z,99.90
2018-06-25T08:51:25.719Z,99.90
2018-06-25T08:53:54.509Z,99.90
2018-06-25T08:56:23.346Z,99.90
2018-06-25T08:58:52.130Z,99.90
2018-06-25T09:01:21.022Z,99.90
2018-06-25T09:03:49.822Z,99.90
2018-06-25T09:06:18.644Z,99.90
2018-06-25T09:08:47.419Z,99.90
2018-06-25T09:11:16.206Z,99.90
2018-06-25T09:13:45.090Z,99.90
2018-06-25T09:16:13.930Z,99.90
2018-06-25T09:18:43.227Z,99.90
2018-06-25T09:23:40.434Z,99.90
2018-06-25T09:26:09.349Z,99.90
2018-06-25T09:28:38.170Z,99.90
2018-06-25T09:31:07.186Z,99.90
2018-06-25T09:33:36.030Z,99.90
2018-06-25T09:36:04.994Z,99.80
2018-06-25T09:38:33.894Z,99.80
2018-06-25T09:41:02.866Z,99.30
2018-06-25T09:43:31.765Z,99.00
2018-06-25T09:46:00.670Z,98.90
2018-06-25T09:48:29.514Z,98.30
2018-06-25T09:50:58.507Z,98.50
2018-06-25T09:53:27.660Z,98.70
2018-06-25T09:55:56.524Z,99.20
2018-06-25T09:58:25.367Z,99.70
2018-06-25T10:00:59.346Z,99.70
2018-06-25T10:03:28.223Z,99.30
2018-06-25T10:05:57.083Z,99.10
2018-06-25T10:08:25.913Z,98.60
2018-06-25T10:10:54.806Z,98.10
2018-06-25T10:13:23.691Z,97.70
2018-06-25T10:15:53.049Z,96.40
2018-06-25T10:18:21.863Z,96.00
2018-06-25T10:20:50.736Z,95.20
2018-06-25T10:23:19.636Z,95.10
2018-06-25T10:25:48.536Z,96.00
2018-06-25T10:28:17.388Z,96.70
2018-06-25T10:30:46.301Z,97.00
2018-06-25T10:33:15.091Z,98.00
2018-06-25T10:35:43.979Z,98.40
2018-06-25T10:38:12.778Z,99.00
2018-06-25T10:40:41.607Z,99.10
2018-06-25T10:43:10.448Z,99.20
2018-06-25T10:45:39.318Z,99.20
2018-06-25T10:48:08.211Z,99.00
2018-06-25T10:50:37.319Z,98.60
2018-06-25T10:53:06.215Z,99.10
2018-06-25T10:55:35.069Z,99.00
2018-06-25T10:58:04.014Z,99.10
2018-06-25T11:00:32.827Z,98.90
2018-06-25T11:03:01.716Z,98.30
2018-06-25T11:07:59.051Z,96.70
2018-06-25T11:10:27.999Z,95.60
2018-06-25T11:12:58.642Z,94.40
2018-06-25T11:15:27.418Z,93.40
2018-06-25T11:17:56.273Z,93.60
2018-06-25T11:20:25.070Z,93.50
2018-06-25T11:22:53.913Z,93.50
2018-06-25T11:25:22.765Z,93.70
2018-06-25T11:27:51.612Z,93.90
2018-06-25T11:30:20.369Z,93.40
2018-06-25T11:32:49.163Z,92.50
2018-06-25T11:35:17.973Z,90.80
2018-06-25T11:37:46.775Z,90.40
2018-06-25T11:40:15.577Z,88.10
2018-06-25T11:47:41.322Z,91.20
2018-06-25T11:52:38.627Z,91.80
2018-06-25T11:55:07.438Z,90.90
2018-06-25T11:57:36.328Z,90.40
2018-06-25T12:00:05.688Z,88.10
2018-06-25T12:02:34.602Z,88.10
2018-06-25T12:05:03.398Z,87.10
2018-06-25T12:07:32.189Z,88.20
2018-06-25T12:10:00.974Z,87.30
2018-06-25T12:12:29.852Z,88.90
2018-06-25T12:14:58.674Z,87.80
2018-06-25T12:17:27.576Z,86.70
2018-06-25T12:19:56.394Z,84.10
2018-06-25T12:22:25.138Z,84.00
2018-06-25T12:24:53.934Z,83.60
2018-06-25T12:27:22.718Z,83.10
2018-06-25T12:29:51.490Z,81.10
2018-06-25T12:32:20.342Z,80.10
2018-06-25T12:34:49.110Z,79.50
2018-06-25T12:37:18.058Z,81.50
2018-06-25T12:39:46.854Z,81.50
2018-06-25T12:42:15.688Z,79.80
2018-06-25T12:44:44.479Z,80.40
2018-06-25T12:47:13.323Z,79.80
2018-06-25T12:49:42.149Z,79.90
2018-06-25T12:52:11.001Z,79.40
2018-06-25T12:54:39.785Z,79.70
2018-06-25T12:57:08.668Z,77.10
2018-06-25T12:59:37.505Z,75.40
2018-06-25T13:02:06.326Z,76.50
2018-06-25T13:04:35.174Z,77.00
2018-06-25T13:07:04.047Z,78.20
2018-06-25T13:09:32.916Z,77.70
2018-06-25T13:12:01.711Z,77.50
2018-06-25T13:14:30.572Z,75.90
2018-06-25T13:16:59.371Z,75.30
2018-06-25T13:19:28.157Z,75.60
2018-06-25T13:21:57.002Z,76.00
2018-06-25T13:24:25.817Z,76.90
2018-06-25T13:26:54.630Z,78.10
2018-06-25T13:29:23.413Z,78.00
2018-06-25T13:31:52.210Z,77.30
2018-06-25T13:34:21.010Z,78.10
2018-06-25T13:36:49.793Z,77.10
2018-06-25T13:39:18.622Z,77.80
2018-06-25T13:41:47.431Z,77.80
2018-06-25T13:44:16.290Z,80.40
2018-06-25T13:46:45.151Z,79.60
2018-06-25T13:49:13.938Z,74.70
2018-06-25T13:51:42.754Z,71.40
2018-06-25T13:54:11.602Z,71.40
2018-06-25T13:56:40.459Z,71.00
2018-06-25T13:59:09.274Z,71.20
2018-06-25T14:01:38.078Z,70.90
2018-06-25T14:04:06.882Z,71.20
2018-06-25T14:06:35.695Z,68.30
2018-06-25T14:09:06.138Z,64.20
2018-06-25T14:11:34.958Z,64.30
2018-06-25T14:14:04.018Z,61.30
2018-06-25T14:16:32.924Z,59.50
2018-06-25T14:19:01.663Z,59.80
2018-06-25T14:21:30.566Z,58.60
2018-06-25T14:24:04.607Z,58.30
2018-06-25T14:26:38.538Z,57.90
2018-06-25T14:29:11.520Z,57.70
2018-06-25T14:31:40.327Z,56.20
2018-06-25T14:34:15.171Z,54.90
2018-06-25T14:36:44.027Z,55.30
2018-06-25T14:39:12.982Z,54.10
2018-06-25T14:41:41.799Z,53.80
2018-06-25T14:44:10.594Z,51.90
2018-06-25T14:46:39.374Z,51.40
2018-06-25T14:49:08.178Z,51.70
2018-06-25T14:51:37.006Z,51.80
2018-06-25T14:54:05.821Z,52.30
2018-06-25T14:56:34.619Z,53.60
2018-06-25T14:59:03.410Z,55.10
2018-06-25T15:01:32.245Z,56.60
2018-06-25T15:04:01.070Z,57.60
2018-06-25T15:06:29.879Z,57.60
2018-06-25T15:11:27.049Z,54.60
2018-06-25T15:13:55.887Z,55.40
2018-06-25T15:16:24.685Z,53.80
2018-06-25T15:18:53.482Z,52.30
2018-06-25T15:21:22.406Z,50.80
2018-06-25T15:23:51.210Z,50.40
2018-06-25T15:26:20.028Z,50.00
2018-06-25T15:28:48.925Z,48.30
2018-06-25T15:31:17.811Z,49.80
2018-06-25T15:33:46.719Z,49.60
2018-06-25T15:36:15.929Z,50.50
2018-06-25T15:38:45.424Z,50.70
2018-06-25T15:41:14.301Z,50.80
2018-06-25T15:43:43.098Z,50.20
2018-06-25T15:46:11.891Z,50.30
2018-06-25T15:48:40.698Z,49.80
2018-06-25T15:51:09.710Z,51.30
2018-06-25T15:53:38.497Z,55.20
2018-06-25T15:56:07.297Z,58.80
2018-06-25T15:58:36.071Z,60.80
2018-06-25T16:01:04.795Z,62.90
2018-06-25T16:03:33.598Z,62.10
2018-06-25T16:06:02.388Z,67.40
2018-06-25T16:08:31.159Z,68.40
2018-06-25T16:10:59.920Z,71.70
2018-06-25T16:13:28.733Z,73.40
2018-06-25T16:15:58.595Z,73.30
2018-06-25T16:18:27.391Z,74.10
2018-06-25T16:20:56.222Z,76.40
2018-06-25T16:23:25.014Z,78.20
2018-06-25T16:25:53.791Z,80.00
2018-06-25T16:28:23.679Z,80.20
2018-06-25T16:30:52.502Z,80.00
2018-06-25T16:33:21.312Z,78.50
2018-06-25T16:35:50.170Z,79.20
2018-06-25T16:38:19.010Z,80.20
2018-06-25T16:40:48.120Z,81.80
2018-06-25T16:43:16.975Z,83.30
2018-06-25T16:45:45.759Z,85.50
2018-06-25T16:48:14.538Z,85.90
2018-06-25T16:50:43.373Z,87.50
2018-06-25T16:53:12.946Z,88.20
2018-06-25T16:55:41.708Z,88.40
2018-06-25T16:58:10.495Z,89.90
2018-06-25T17:00:39.286Z,90.00
2018-06-25T17:03:08.075Z,89.30
2018-06-25T17:05:37.106Z,87.60
2018-06-25T17:08:05.915Z,87.60
2018-06-25T17:10:34.750Z,87.70
2018-06-25T17:13:03.554Z,85.40
2018-06-25T17:15:32.304Z,83.90
2018-06-25T17:18:01.152Z,83.10
2018-06-25T17:20:29.958Z,80.00
2018-06-25T17:22:58.770Z,78.10
2018-06-25T17:25:27.551Z,74.80
2018-06-25T17:27:56.395Z,72.90
2018-06-25T17:30:25.229Z,71.60
2018-06-25T17:32:54.039Z,70.30
2018-06-25T17:35:22.864Z,70.00
2018-06-25T17:40:20.110Z,71.60
2018-06-25T17:42:48.953Z,75.30
2018-06-25T17:45:17.771Z,78.00
2018-06-25T17:47:46.567Z,80.70
2018-06-25T17:50:15.382Z,81.60
2018-06-25T17:52:44.174Z,82.80
2018-06-25T17:55:12.928Z,82.90
2018-06-25T17:57:41.728Z,83.50
2018-06-25T18:00:10.551Z,85.10
2018-06-25T18:02:39.415Z,87.40
2018-06-25T18:05:08.196Z,88.40
2018-06-25T18:07:38.530Z,89.00
2018-06-25T18:10:07.772Z,90.20
2018-06-25T18:12:36.634Z,90.80
2018-06-25T18:15:05.976Z,91.40
2018-06-25T18:17:34.826Z,92.10
2018-06-25T18:20:04.479Z,93.00
2018-06-25T18:22:33.348Z,94.80
2018-06-25T18:25:02.145Z,95.90
2018-06-25T18:27:31.040Z,96.70
2018-06-25T18:29:59.815Z,97.40
2018-06-25T18:32:29.285Z,98.00
2018-06-25T18:34:58.107Z,98.10
2018-06-25T18:37:26.951Z,99.10
2018-06-25T18:39:55.750Z,99.80
2018-06-25T18:42:24.802Z,99.90
2018-06-25T18:44:53.902Z,99.90
2018-06-25T18:47:22.865Z,99.90
2018-06-25T18:49:51.679Z,99.90
2018-06-25T18:52:21.356Z,99.90
2018-06-25T18:54:50.248Z,99.90
2018-06-25T18:57:21.124Z,99.90
2018-06-25T18:59:50.274Z,99.90
2018-06-25T19:02:19.147Z,99.90
2018-06-25T19:04:48.008Z,99.90
2018-06-25T19:07:16.807Z,99.90
2018-06-25T19:09:45.633Z,99.90
2018-06-25T19:12:14.447Z,99.90
2018-06-25T19:14:43.270Z,99.90
2018-06-25T19:17:12.095Z,99.90
2018-06-25T19:19:40.946Z,99.90
2018-06-25T19:22:09.739Z,99.90
2018-06-25T19:24:38.587Z,99.90
2018-06-25T19:27:07.411Z,99.90
2018-06-25T19:29:36.351Z,99.90
2018-06-25T19:32:05.202Z,99.90
2018-06-25T19:34:34.047Z,99.90
2018-06-25T19:37:02.850Z,99.90
2018-06-25T19:39:31.663Z,99.90
2018-06-25T19:42:00.476Z,99.90
2018-06-25T19:44:29.283Z,99.90
2018-06-25T19:46:58.097Z,99.90
2018-06-25T19:49:26.918Z,99.90
2018-06-25T19:51:55.705Z,99.90
2018-06-25T19:54:24.630Z,99.90
2018-06-25T19:56:53.424Z,99.90
2018-06-25T19:59:22.263Z,99.90
2018-06-25T20:01:51.110Z,99.90
2018-06-25T20:04:20.086Z,99.90
2018-06-25T20:06:48.907Z,99.90
2018-06-25T20:09:18.906Z,99.90
2018-06-25T20:11:47.722Z,99.90
2018-06-25T20:14:16.590Z,99.90
2018-06-25T20:16:45.512Z,99.90
2018-06-25T20:19:14.296Z,99.90
2018-06-25T20:21:43.262Z,99.90
2018-06-25T20:24:12.070Z,99.90
2018-06-25T20:26:40.882Z,99.90
2018-06-25T20:29:09.751Z,99.90
2018-06-25T20:31:38.580Z,99.90
2018-06-25T20:34:07.562Z,99.90
2018-06-25T20:36:36.328Z,99.90
2018-06-25T20:39:08.323Z,99.90
2018-06-25T20:41:37.177Z,99.90
2018-06-25T20:44:08.056Z,99.90
2018-06-25T20:46:36.919Z,99.90
2018-06-25T20:49:05.826Z,99.90
2018-06-25T20:51:34.602Z,99.90
2018-06-25T20:54:03.490Z,99.90
2018-06-25T20:56:32.339Z,99.90
2018-06-25T20:59:01.175Z,99.90
2018-06-25T21:01:29.978Z,99.90
2018-06-25T21:03:58.747Z,99.90
2018-06-25T21:06:27.602Z,99.90
2018-06-25T21:08:56.418Z,99.90
2018-06-25T21:11:25.256Z,99.90
2018-06-25T21:13:54.096Z,99.90
2018-06-25T21:16:23.005Z,99.90
2018-06-25T21:18:51.813Z,99.90
2018-06-25T21:21:20.622Z,99.90
2018-06-25T21:23:49.434Z,99.90
2018-06-25T21:26:18.219Z,99.90
2018-06-25T21:28:47.022Z,99.90
2018-06-25T21:31:15.878Z,99.90
2018-06-25T21:36:13.050Z,99.90
2018-06-25T21:38:41.835Z,99.90
2018-06-25T21:41:10.610Z,99.90
2018-06-25T21:43:39.419Z,99.90
2018-06-25T21:46:08.246Z,99.90
2018-06-25T21:48:37.042Z,99.90
2018-06-25T21:51:05.882Z,99.90
2018-06-25T21:53:34.780Z,99.90
2018-06-25T21:56:03.642Z,99.90
2018-06-25T21:58:32.476Z,99.90
2018-06-25T22:01:01.318Z,99.90
2018-06-25T22:03:30.098Z,99.90
2018-06-25T22:05:58.863Z,99.90
2018-06-25T22:08:27.647Z,99.90
2018-06-25T22:11:02.828Z,99.90
2018-06-25T22:13:31.661Z,99.90
2018-06-25T22:16:00.458Z,99.90
2018-06-25T22:18:29.259Z,99.90
2018-06-25T22:20:58.119Z,99.90
2018-06-25T22:23:26.945Z,99.90
2018-06-25T22:25:55.807Z,99.90
2018-06-25T22:28:24.602Z,99.90
2018-06-25T22:30:53.394Z,99.90
2018-06-25T22:33:22.180Z,99.90
2018-06-25T22:35:50.962Z,99.90
2018-06-25T22:38:19.742Z,99.90
2018-06-25T22:40:48.520Z,99.90
2018-06-25T22:43:17.298Z,99.90
2018-06-25T22:45:46.099Z,99.90
2018-06-25T22:48:14.875Z,99.90
2018-06-25T22:50:43.722Z,99.90
2018-06-25T22:53:12.601Z,99.90
2018-06-25T22:55:41.431Z,99.90
2018-06-25T22:58:10.206Z,99.90
2018-06-25T23:00:38.974Z,99.90
2018-06-25T23:03:07.782Z,99.90
2018-06-25T23:05:36.563Z,99.90
2018-06-25T23:08:05.375Z,99.90
2018-06-25T23:10:34.167Z,99.90
2018-06-25T23:13:02.991Z,99.90
2018-06-25T23:15:31.755Z,99.90
2018-06-25T23:18:00.518Z,99.90
2018-06-25T23:20:29.363Z,99.90
2018-06-25T23:22:58.623Z,99.90
2018-06-25T23:25:27.425Z,99.90
2018-06-25T23:27:56.218Z,99.90
2018-06-25T23:30:24.954Z,99.90
2018-06-25T23:32:53.706Z,99.90
2018-06-25T23:35:22.486Z,99.90
2018-06-25T23:37:51.243Z,99.90
2018-06-25T23:40:20.054Z,99.90
2018-06-25T23:42:48.825Z,99.90
2018-06-25T23:45:17.614Z,99.90
2018-06-25T23:47:46.383Z,99.90
2018-06-25T23:50:15.159Z,99.90
2018-06-25T23:52:43.934Z,99.90
2018-06-25T23:55:12.730Z,99.90
2018-06-25T23:57:41.537Z,99.90
